createdAt,value
2017-10-03T00:00:16.985Z,10.53
2017-10-03T00:02:45.514Z,10.17
2017-10-03T00:05:12.829Z,11.73
2017-10-03T00:07:39.954Z,11.50
2017-10-03T00:10:08.180Z,12.13
2017-10-03T00:12:35.039Z,10.23
2017-10-03T00:15:04.332Z,10.47
2017-10-03T00:17:31.232Z,12.20
2017-10-03T00:19:58.048Z,9.90
2017-10-03T00:22:25.834Z,10.90
2017-10-03T00:24:53.528Z,10.47
2017-10-03T00:27:20.403Z,10.80
2017-10-03T00:29:47.278Z,10.47
2017-10-03T00:32:14.205Z,10.83
2017-10-03T00:34:42.484Z,8.73
2017-10-03T00:37:10.065Z,9.33
2017-10-03T00:39:36.988Z,10.47
2017-10-03T00:42:04.166Z,8.80
2017-10-03T00:44:31.106Z,9.43
2017-10-03T00:46:58.331Z,9.60
2017-10-03T00:49:26.081Z,9.60
2017-10-03T00:51:53.770Z,9.10
2017-10-03T00:54:21.486Z,9.33
2017-10-03T00:56:49.122Z,7.50
2017-10-03T00:59:16.066Z,8.90
2017-10-03T01:01:42.983Z,7.70
2017-10-03T01:04:09.813Z,8.10
2017-10-03T01:06:36.724Z,8.30
2017-10-03T01:09:05.084Z,7.93
2017-10-03T01:11:31.968Z,8.13
2017-10-03T01:13:59.613Z,7.67
2017-10-03T01:16:26.462Z,8.40
2017-10-03T01:18:53.326Z,6.87
2017-10-03T01:21:20.245Z,6.73
2017-10-03T01:23:47.976Z,6.10
2017-10-03T01:26:14.903Z,7.30
2017-10-03T01:28:42.188Z,7.00
2017-10-03T01:31:08.996Z,7.87
2017-10-03T01:33:35.833Z,7.37
2017-10-03T01:36:02.670Z,7.60
2017-10-03T01:38:29.512Z,6.73
2017-10-03T01:40:56.446Z,6.90
2017-10-03T01:43:23.291Z,8.00
2017-10-03T01:45:50.195Z,6.73
2017-10-03T01:48:17.797Z,7.40
2017-10-03T01:50:44.671Z,5.57
2017-10-03T01:53:11.658Z,5.40
2017-10-03T01:55:38.535Z,5.27
2017-10-03T01:58:05.371Z,5.50
2017-10-03T02:00:32.159Z,4.30
2017-10-03T02:02:59.010Z,5.00
2017-10-03T02:05:25.842Z,4.63
2017-10-03T02:07:52.636Z,4.40
2017-10-03T02:10:19.533Z,5.13
2017-10-03T02:12:46.364Z,4.17
2017-10-03T02:15:13.208Z,3.97
2017-10-03T02:17:40.024Z,4.63
2017-10-03T02:20:06.830Z,5.30
2017-10-03T02:22:33.758Z,5.47
2017-10-03T02:25:00.604Z,5.20
2017-10-03T02:27:27.434Z,5.53
2017-10-03T02:29:54.998Z,5.73
2017-10-03T02:32:21.875Z,5.83
2017-10-03T02:34:49.448Z,5.57
2017-10-03T02:37:16.360Z,5.87
2017-10-03T02:39:43.190Z,6.67
2017-10-03T02:42:10.843Z,6.03
2017-10-03T02:44:37.663Z,6.70
2017-10-03T02:47:04.500Z,7.17
2017-10-03T02:49:31.342Z,8.10
2017-10-03T02:51:58.921Z,9.50
2017-10-03T02:54:26.554Z,9.87
2017-10-03T02:56:53.373Z,10.50
2017-10-03T02:59:21.031Z,12.30
2017-10-03T03:01:48.681Z,12.20
2017-10-03T03:04:15.529Z,12.13
2017-10-03T03:06:42.515Z,12.10
2017-10-03T03:09:09.472Z,13.60
2017-10-03T03:11:36.316Z,12.83
2017-10-03T03:14:03.191Z,14.50
2017-10-03T03:16:30.087Z,15.60
2017-10-03T03:18:56.989Z,16.83
2017-10-03T03:21:23.835Z,15.70
2017-10-03T03:23:50.716Z,16.43
2017-10-03T03:26:17.594Z,17.80
2017-10-03T03:28:44.435Z,16.93
2017-10-03T03:31:11.248Z,20.13
2017-10-03T03:33:38.074Z,16.83
2017-10-03T03:36:04.901Z,17.50
2017-10-03T03:38:31.757Z,19.00
2017-10-03T03:40:59.362Z,17.40
2017-10-03T03:43:26.177Z,21.20
2017-10-03T03:45:53.163Z,20.13
2017-10-03T03:48:21.419Z,19.77
2017-10-03T03:50:48.228Z,18.13
2017-10-03T03:53:15.037Z,19.77
2017-10-03T03:55:41.879Z,18.27
2017-10-03T03:58:08.721Z,16.93
2017-10-03T04:00:35.603Z,18.07
2017-10-03T04:03:02.469Z,18.70
2017-10-03T04:05:29.296Z,18.20
2017-10-03T04:07:56.111Z,19.60
2017-10-03T04:10:22.892Z,18.37
2017-10-03T04:12:50.494Z,19.07
2017-10-03T04:15:17.353Z,16.80
2017-10-03T04:17:44.243Z,18.60
2017-10-03T04:20:11.134Z,19.37
2017-10-03T04:22:38.128Z,19.50
2017-10-03T04:25:04.961Z,21.10
2017-10-03T04:27:31.764Z,19.70
2017-10-03T04:29:58.593Z,20.40
2017-10-03T04:32:25.405Z,19.17
2017-10-03T04:34:52.214Z,19.97
2017-10-03T04:37:19.065Z,22.43
2017-10-03T04:39:45.907Z,22.33
2017-10-03T04:42:12.714Z,22.50
2017-10-03T04:44:39.530Z,23.80
2017-10-03T04:47:06.367Z,20.93
2017-10-03T04:49:33.223Z,24.80
2017-10-03T04:52:00.028Z,19.87
2017-10-03T04:54:26.850Z,20.93
2017-10-03T04:56:53.669Z,23.77
2017-10-03T04:59:21.246Z,22.60
2017-10-03T05:01:48.815Z,22.83
2017-10-03T05:04:15.674Z,19.53
2017-10-03T05:06:42.472Z,19.03
2017-10-03T05:09:09.315Z,19.93
2017-10-03T05:11:36.945Z,19.60
2017-10-03T05:14:03.765Z,19.10
2017-10-03T05:16:30.683Z,20.23
2017-10-03T05:18:57.606Z,18.87
2017-10-03T05:21:24.439Z,18.50
2017-10-03T05:23:52.077Z,19.37
2017-10-03T05:26:19.178Z,18.17
2017-10-03T05:28:46.793Z,20.83
2017-10-03T05:31:13.607Z,19.63
2017-10-03T05:33:40.508Z,20.63
2017-10-03T05:36:07.306Z,20.50
2017-10-03T05:38:34.189Z,18.77
2017-10-03T05:41:01.145Z,17.60
2017-10-03T05:43:27.935Z,18.73
2017-10-03T05:45:54.773Z,17.40
2017-10-03T05:48:21.631Z,18.10
2017-10-03T05:50:49.211Z,19.00
2017-10-03T05:53:16.024Z,18.57
2017-10-03T05:55:42.852Z,20.73
2017-10-03T05:58:10.470Z,19.80
2017-10-03T06:00:38.050Z,20.23
2017-10-03T06:03:04.864Z,18.30
2017-10-03T06:05:32.544Z,17.37
2017-10-03T06:08:00.134Z,17.00
2017-10-03T06:10:27.718Z,20.83
2017-10-03T06:12:54.580Z,18.87
2017-10-03T06:15:21.476Z,18.17
2017-10-03T06:17:49.087Z,19.17
2017-10-03T06:20:15.895Z,20.27
2017-10-03T06:22:42.716Z,18.63
2017-10-03T06:25:10.297Z,20.97
2017-10-03T06:27:37.899Z,21.30
2017-10-03T06:30:04.806Z,22.93
2017-10-03T06:32:31.674Z,23.97
2017-10-03T06:34:58.574Z,21.60
2017-10-03T06:37:25.446Z,20.40
2017-10-03T06:39:52.319Z,23.10
2017-10-03T06:42:19.105Z,22.60
2017-10-03T06:44:45.982Z,23.30
2017-10-03T06:47:14.157Z,24.80
2017-10-03T06:49:41.082Z,22.53
2017-10-03T06:52:07.942Z,24.57
2017-10-03T06:54:34.803Z,22.93
2017-10-03T06:57:01.619Z,24.53
2017-10-03T06:59:28.554Z,25.40
2017-10-03T07:01:55.415Z,23.90
2017-10-03T07:04:22.328Z,22.60
2017-10-03T07:06:49.213Z,24.60
2017-10-03T07:09:16.083Z,24.87
2017-10-03T07:11:42.985Z,24.93
2017-10-03T07:14:09.935Z,22.00
2017-10-03T07:16:36.750Z,25.70
2017-10-03T07:19:04.399Z,25.37
2017-10-03T07:21:31.303Z,25.20
2017-10-03T07:23:58.295Z,24.30
2017-10-03T07:26:25.331Z,24.17
2017-10-03T07:28:52.205Z,25.00
2017-10-03T07:31:20.375Z,24.83
2017-10-03T07:33:47.975Z,23.13
2017-10-03T07:36:14.892Z,24.80
2017-10-03T07:38:42.013Z,22.27
2017-10-03T07:41:08.886Z,23.60
2017-10-03T07:43:35.834Z,21.70
2017-10-03T07:46:02.705Z,21.60
2017-10-03T07:48:29.565Z,22.77
2017-10-03T07:50:56.431Z,20.40
2017-10-03T07:53:23.275Z,21.97
2017-10-03T07:55:50.505Z,19.93
2017-10-03T07:58:17.317Z,19.80
2017-10-03T08:00:44.242Z,20.30
2017-10-03T08:03:11.883Z,19.70
2017-10-03T08:05:38.768Z,19.80
2017-10-03T08:08:05.721Z,19.43
2017-10-03T08:10:33.857Z,19.17
2017-10-03T08:13:00.731Z,19.50
2017-10-03T08:15:27.620Z,19.57
2017-10-03T08:17:54.457Z,18.63
2017-10-03T08:20:21.312Z,15.80
2017-10-03T08:22:48.173Z,15.33
2017-10-03T08:25:15.009Z,14.20
2017-10-03T08:27:42.606Z,16.23
2017-10-03T08:30:09.520Z,15.27
2017-10-03T08:32:36.406Z,15.07
2017-10-03T08:35:03.997Z,13.63
2017-10-03T08:37:31.583Z,13.33
2017-10-03T08:39:58.462Z,14.07
2017-10-03T08:42:25.346Z,12.43
2017-10-03T08:44:52.228Z,12.30
2017-10-03T08:47:19.113Z,14.10
2017-10-03T08:49:46.711Z,12.87
2017-10-03T08:52:13.575Z,11.43
2017-10-03T08:54:40.426Z,13.00
2017-10-03T08:57:07.272Z,13.67
2017-10-03T08:59:34.845Z,11.47
2017-10-03T09:02:01.658Z,10.37
2017-10-03T09:04:28.492Z,10.83
2017-10-03T09:06:55.396Z,10.87
2017-10-03T09:09:22.223Z,9.83
2017-10-03T09:11:49.093Z,10.97
2017-10-03T09:14:15.968Z,10.47
2017-10-03T09:16:42.869Z,10.20
2017-10-03T09:19:09.691Z,8.47
2017-10-03T09:21:36.546Z,7.90
2017-10-03T09:24:03.402Z,8.47
2017-10-03T09:26:30.294Z,7.73
2017-10-03T09:28:57.156Z,8.43
2017-10-03T09:31:24.061Z,8.00
2017-10-03T09:33:50.939Z,8.20
2017-10-03T09:36:17.854Z,7.67
2017-10-03T09:38:44.733Z,8.37
2017-10-03T09:41:12.315Z,8.40
2017-10-03T09:56:41.841Z,7.83
2017-10-03T09:59:08.790Z,6.80
2017-10-03T10:01:35.632Z,6.70
2017-10-03T10:04:02.530Z,7.40
2017-10-03T10:06:29.468Z,7.47
2017-10-03T10:08:56.359Z,7.70
2017-10-03T10:11:23.176Z,6.70
2017-10-03T10:13:50.084Z,7.20
2017-10-03T10:16:16.964Z,7.47
2017-10-03T10:18:43.932Z,6.50
2017-10-03T10:21:10.799Z,6.37
2017-10-03T10:23:37.716Z,6.90
2017-10-03T10:26:05.281Z,6.50
2017-10-03T10:28:32.183Z,6.40
2017-10-03T10:30:59.070Z,5.47
2017-10-03T10:33:25.971Z,5.80
2017-10-03T10:35:52.835Z,5.20
2017-10-03T10:38:19.711Z,5.77
2017-10-03T10:40:46.547Z,6.30
2017-10-03T10:43:13.382Z,5.70
2017-10-03T10:45:40.976Z,5.43
2017-10-03T10:48:08.619Z,5.40
2017-10-03T10:50:35.436Z,5.40
2017-10-03T10:53:02.401Z,5.23
2017-10-03T10:55:29.219Z,5.57
2017-10-03T10:57:56.100Z,4.43
2017-10-03T11:00:22.950Z,4.80
2017-10-03T11:02:50.597Z,3.70
2017-10-03T11:05:17.451Z,4.23
2017-10-03T11:07:44.342Z,4.63
2017-10-03T11:10:11.171Z,4.13
2017-10-03T11:12:38.043Z,3.77
2017-10-03T11:15:04.905Z,4.20
2017-10-03T11:17:31.879Z,5.03
2017-10-03T11:19:58.726Z,4.60
2017-10-03T11:22:25.731Z,4.27
2017-10-03T11:24:53.502Z,4.63
2017-10-03T11:27:20.383Z,3.97
2017-10-03T11:29:47.578Z,4.77
2017-10-03T11:32:14.837Z,4.10
2017-10-03T11:34:41.694Z,4.60
2017-10-03T11:37:08.569Z,3.97
2017-10-03T11:39:35.522Z,4.40
2017-10-03T11:42:02.389Z,3.87
2017-10-03T11:44:29.245Z,4.03
2017-10-03T11:46:56.080Z,4.40
2017-10-03T11:49:24.401Z,4.30
2017-10-03T11:51:52.925Z,3.90
2017-10-03T11:54:22.443Z,3.60
2017-10-03T11:56:49.714Z,3.33
2017-10-03T11:59:16.914Z,3.70
2017-10-03T12:01:45.075Z,3.60
2017-10-03T12:04:14.523Z,4.12
2017-10-03T12:06:43.386Z,4.00
2017-10-03T12:09:12.685Z,3.60
2017-10-03T12:11:45.907Z,3.90
2017-10-03T12:14:16.338Z,4.27
2017-10-03T12:16:43.928Z,4.43
2017-10-03T12:19:11.827Z,4.43
2017-10-03T12:21:38.776Z,3.93
2017-10-03T12:24:07.033Z,3.53
2017-10-03T12:26:35.258Z,3.70
2017-10-03T12:29:02.381Z,4.03
2017-10-03T12:31:29.262Z,4.10
2017-10-03T12:33:57.331Z,4.20
2017-10-03T12:36:24.230Z,4.20
2017-10-03T12:38:51.901Z,3.53
2017-10-03T12:41:18.826Z,4.07
2017-10-03T12:43:45.671Z,3.30
2017-10-03T12:46:12.492Z,4.33
2017-10-03T12:48:40.052Z,4.70
2017-10-03T12:51:06.917Z,4.10
2017-10-03T12:53:33.791Z,4.80
2017-10-03T12:56:02.253Z,5.07
2017-10-03T12:58:29.919Z,5.70
2017-10-03T13:00:56.739Z,6.07
2017-10-03T13:03:23.684Z,5.00
2017-10-03T13:05:50.527Z,4.80
2017-10-03T13:08:17.489Z,5.60
2017-10-03T13:10:44.683Z,4.67
2017-10-03T13:13:11.770Z,5.97
2017-10-03T13:15:38.625Z,5.40
2017-10-03T13:18:05.440Z,5.30
2017-10-03T13:20:32.298Z,4.73
2017-10-03T13:22:59.277Z,4.33
2017-10-03T13:25:26.082Z,5.60
2017-10-03T13:27:52.998Z,4.40
2017-10-03T13:30:19.850Z,4.10
2017-10-03T13:32:46.743Z,4.27
2017-10-03T13:35:14.634Z,3.80
2017-10-03T13:37:41.709Z,4.03
2017-10-03T13:40:08.766Z,4.07
2017-10-03T13:42:35.736Z,4.27
2017-10-03T13:45:02.781Z,3.80
2017-10-03T13:47:29.665Z,3.93
2017-10-03T13:49:56.669Z,3.77
2017-10-03T13:52:23.675Z,4.50
2017-10-03T13:54:51.276Z,3.83
2017-10-03T13:57:18.215Z,3.80
2017-10-03T13:59:45.804Z,4.60
2017-10-03T14:02:13.371Z,3.80
2017-10-03T14:04:40.980Z,3.30
2017-10-03T14:07:07.844Z,3.00
2017-10-03T14:09:34.696Z,3.90
2017-10-03T14:12:01.578Z,3.43
2017-10-03T14:14:28.426Z,3.63
2017-10-03T14:16:55.242Z,3.63
2017-10-03T14:19:22.542Z,3.93
2017-10-03T14:21:49.506Z,4.00
2017-10-03T14:24:16.405Z,3.83
2017-10-03T14:26:43.349Z,4.10
2017-10-03T14:29:10.292Z,4.60
2017-10-03T14:31:37.894Z,3.77
2017-10-03T14:34:04.729Z,3.87
2017-10-03T14:36:32.343Z,3.60
2017-10-03T14:38:59.380Z,3.50
2017-10-03T14:41:26.975Z,4.07
2017-10-03T14:43:53.813Z,4.07
2017-10-03T14:46:20.639Z,4.50
2017-10-03T14:48:47.479Z,4.70
2017-10-03T14:51:14.405Z,4.00
2017-10-03T14:53:41.406Z,3.73
2017-10-03T14:56:08.483Z,3.23
2017-10-03T14:58:35.343Z,4.20
2017-10-03T15:01:02.238Z,3.10
2017-10-03T15:03:29.135Z,3.57
2017-10-03T15:05:56.006Z,3.60
2017-10-03T15:08:22.890Z,3.47
2017-10-03T15:10:49.801Z,3.50
2017-10-03T15:13:17.394Z,2.70
2017-10-03T15:15:45.001Z,2.17
2017-10-03T15:18:11.841Z,2.27
2017-10-03T15:20:38.800Z,2.13
2017-10-03T15:23:05.800Z,1.90
2017-10-03T15:25:32.887Z,2.47
2017-10-03T15:27:59.788Z,3.17
2017-10-03T15:30:27.433Z,4.10
2017-10-03T15:32:54.373Z,9.60
2017-10-03T15:35:21.276Z,6.80
2017-10-03T15:37:48.880Z,2.13
2017-10-03T15:40:16.085Z,2.90
2017-10-03T15:42:43.013Z,2.53
2017-10-03T15:45:09.873Z,3.23
2017-10-03T15:47:36.824Z,2.87
2017-10-03T15:50:04.471Z,3.30
2017-10-03T16:05:22.785Z,3.33
2017-10-03T16:07:49.761Z,3.63
2017-10-03T16:10:16.629Z,3.20
2017-10-03T16:12:44.272Z,2.60
2017-10-03T16:15:12.000Z,3.33
2017-10-03T16:17:40.072Z,2.87
2017-10-03T16:20:07.766Z,2.90
2017-10-03T16:22:36.490Z,3.40
2017-10-03T16:25:04.514Z,3.17
2017-10-03T16:27:31.776Z,3.63
2017-10-03T16:29:58.760Z,2.93
2017-10-03T16:32:26.073Z,2.43
2017-10-03T16:34:55.125Z,2.87
2017-10-03T16:37:22.271Z,3.30
2017-10-03T16:39:49.539Z,3.30
2017-10-03T16:42:16.563Z,2.90
2017-10-03T16:44:43.622Z,3.10
2017-10-03T16:47:11.497Z,2.80
2017-10-03T16:49:38.433Z,2.90
2017-10-03T16:52:05.373Z,3.13
2017-10-03T16:54:32.932Z,3.43
2017-10-03T16:57:00.183Z,2.90
2017-10-03T16:59:27.955Z,2.50
2017-10-03T17:01:56.142Z,3.00
2017-10-03T17:04:23.764Z,3.40
2017-10-03T17:06:51.666Z,3.27
2017-10-03T17:09:18.534Z,4.03
2017-10-03T17:11:45.410Z,2.77
2017-10-03T17:14:12.275Z,2.80
2017-10-03T17:16:39.147Z,3.70
2017-10-03T17:21:39.755Z,3.83
2017-10-03T17:24:06.849Z,3.33
2017-10-03T17:26:34.428Z,4.10
2017-10-03T17:29:02.160Z,3.40
2017-10-03T17:31:29.021Z,3.67
2017-10-03T17:33:55.916Z,3.53
2017-10-03T17:36:22.884Z,3.53
2017-10-03T17:38:49.895Z,3.60
2017-10-03T17:41:16.711Z,3.40
2017-10-03T17:43:44.420Z,4.03
2017-10-03T17:46:11.271Z,4.30
2017-10-03T17:48:38.840Z,3.93
2017-10-03T17:51:06.393Z,3.60
2017-10-03T17:53:33.239Z,4.20
2017-10-03T17:56:00.582Z,6.53
2017-10-03T17:58:27.513Z,6.00
2017-10-03T18:00:55.698Z,4.87
2017-10-03T18:03:24.141Z,4.30
2017-10-03T18:05:51.910Z,4.03
2017-10-03T18:08:19.972Z,4.00
2017-10-03T18:10:47.993Z,4.60
2017-10-03T18:13:15.214Z,4.13
2017-10-03T18:15:44.646Z,4.33
2017-10-03T18:18:13.509Z,4.67
2017-10-03T18:20:41.861Z,4.43
2017-10-03T18:23:10.243Z,4.57
2017-10-03T18:25:39.058Z,3.97
2017-10-03T18:28:08.064Z,4.57
2017-10-03T18:30:36.937Z,3.73
2017-10-03T18:33:05.910Z,7.87
2017-10-03T18:35:35.209Z,5.60
2017-10-03T18:38:04.120Z,8.80
2017-10-03T18:40:33.342Z,7.13
2017-10-03T18:43:02.354Z,6.90
2017-10-03T18:45:31.956Z,4.90
2017-10-03T18:48:00.740Z,6.60
2017-10-03T18:50:29.736Z,5.30
2017-10-03T18:52:58.794Z,6.77
2017-10-03T18:55:27.611Z,6.43
2017-10-03T18:57:57.308Z,8.23
2017-10-03T19:00:26.510Z,7.60
2017-10-03T19:02:55.277Z,14.20
2017-10-03T19:05:24.154Z,9.80
2017-10-03T19:07:53.757Z,12.70
2017-10-03T19:10:22.748Z,25.37
2017-10-03T19:12:51.535Z,12.83
2017-10-03T19:15:20.028Z,7.83
2017-10-03T19:17:48.897Z,9.40
2017-10-03T19:20:17.385Z,7.40
2017-10-03T19:22:46.131Z,11.20
2017-10-03T19:25:15.683Z,8.33
2017-10-03T19:27:44.270Z,7.63
2017-10-03T19:30:13.834Z,7.93
2017-10-03T19:32:41.070Z,7.40
2017-10-03T19:35:08.547Z,7.47
2017-10-03T19:37:35.640Z,7.20
2017-10-03T19:40:02.702Z,9.40
2017-10-03T19:42:29.841Z,8.43
2017-10-03T19:44:56.771Z,10.90
2017-10-03T19:47:24.395Z,7.37
2017-10-03T19:49:51.311Z,8.70
2017-10-03T19:52:18.963Z,7.17
2017-10-03T19:54:45.791Z,7.33
2017-10-03T19:57:12.644Z,6.70
2017-10-03T19:59:39.611Z,6.40
2017-10-03T20:02:06.535Z,7.47
2017-10-03T20:04:34.186Z,6.73
2017-10-03T20:07:01.046Z,7.03
2017-10-03T20:09:28.035Z,7.97
2017-10-03T20:11:55.740Z,6.20
2017-10-03T20:14:22.632Z,6.17
2017-10-03T20:16:49.487Z,6.10
2017-10-03T20:19:16.323Z,6.03
2017-10-03T20:21:43.341Z,8.40
2017-10-03T20:24:10.235Z,7.87
2017-10-03T20:26:37.825Z,6.83
2017-10-03T20:29:05.455Z,7.40
2017-10-03T20:31:32.328Z,7.93
2017-10-03T20:33:59.238Z,8.40
2017-10-03T20:36:26.098Z,6.80
2017-10-03T20:38:53.038Z,6.87
2017-10-03T20:41:20.653Z,6.00
2017-10-03T20:43:47.734Z,6.17
2017-10-03T20:46:14.759Z,5.50
2017-10-03T20:48:42.500Z,5.80
2017-10-03T20:51:09.353Z,6.20
2017-10-03T20:53:36.399Z,6.10
2017-10-03T20:56:04.717Z,6.30
2017-10-03T20:58:31.487Z,5.50
2017-10-03T21:00:58.324Z,5.87
2017-10-03T21:03:25.656Z,7.27
2017-10-03T21:05:52.688Z,5.53
2017-10-03T21:08:20.309Z,5.70
2017-10-03T21:10:47.173Z,6.83
2017-10-03T21:13:14.052Z,6.03
2017-10-03T21:15:40.860Z,5.47
2017-10-03T21:18:07.679Z,5.50
2017-10-03T21:20:34.560Z,5.47
2017-10-03T21:23:01.440Z,5.47
2017-10-03T21:25:28.355Z,6.57
2017-10-03T21:27:55.176Z,5.80
2017-10-03T21:30:22.036Z,5.27
2017-10-03T21:32:49.685Z,6.53
2017-10-03T21:35:16.558Z,5.50
2017-10-03T21:37:43.546Z,5.73
2017-10-03T21:40:11.181Z,5.63
2017-10-03T21:56:10.490Z,5.60
2017-10-03T21:58:38.080Z,4.57
2017-10-03T22:01:04.975Z,5.83
2017-10-03T22:03:31.894Z,5.20
2017-10-03T22:05:59.543Z,3.87
2017-10-03T22:08:26.965Z,5.43
2017-10-03T22:10:53.803Z,4.53
2017-10-03T22:13:21.410Z,4.70
2017-10-03T22:15:48.242Z,5.33
2017-10-03T22:18:15.781Z,4.63
2017-10-03T22:20:42.637Z,4.77
2017-10-03T22:23:14.920Z,4.70
2017-10-03T22:25:41.805Z,4.97
2017-10-03T22:28:08.634Z,4.37
2017-10-03T22:30:35.512Z,4.00
2017-10-03T22:33:02.411Z,4.53
2017-10-03T22:35:30.132Z,4.10
2017-10-03T22:37:56.989Z,3.63
2017-10-03T22:40:23.809Z,3.03
2017-10-03T22:42:50.634Z,4.33
2017-10-03T22:45:17.519Z,3.90
2017-10-03T22:47:45.329Z,3.73
2017-10-03T22:50:16.133Z,4.13
2017-10-03T22:52:52.605Z,3.93
2017-10-03T22:55:20.175Z,3.83
2017-10-03T22:57:50.560Z,3.90
2017-10-03T23:00:17.482Z,3.60
2017-10-03T23:02:44.335Z,4.60
2017-10-03T23:05:11.183Z,3.47
2017-10-03T23:07:38.597Z,3.90
2017-10-03T23:10:06.417Z,4.20
2017-10-03T23:12:34.450Z,4.27
2017-10-03T23:15:01.286Z,5.23
2017-10-03T23:17:28.170Z,5.50
2017-10-03T23:19:55.015Z,5.30
2017-10-03T23:22:21.822Z,4.47
2017-10-03T23:24:48.745Z,4.20
2017-10-03T23:27:15.607Z,4.57
2017-10-03T23:29:42.442Z,3.83
2017-10-03T23:32:10.042Z,4.90
2017-10-03T23:34:36.856Z,4.60
2017-10-03T23:37:03.749Z,4.93
2017-10-03T23:39:31.373Z,5.40
2017-10-03T23:41:58.240Z,4.43
2017-10-03T23:44:25.116Z,4.40
2017-10-03T23:46:51.973Z,4.80
2017-10-03T23:49:18.814Z,5.10
2017-10-03T23:51:45.706Z,4.67
2017-10-03T23:54:12.561Z,4.13
2017-10-03T23:56:39.519Z,5.17
2017-10-03T23:59:06.380Z,4.70
